Time;durP1;ratioP1;P1;durP2;ratioP2;P2;SDS_P1;SDS_P2;PMS_P1;PMS_P2;Temp;Humidity;BMP_temperature;BMP_pressure;BME280_temperature;BME280_humidity;BME280_pressure;Samples;Min_cycle;Max_cycle;Signal;HPM_P1;HPM_P2
2023/12/02 00:01:54;;;;;;;11.97;6.57;;;-1.10;1.00;;;;;;5067005;28;20209;-78
2023/12/02 00:04:21;;;;;;;12.03;6.67;;;-1.00;1.00;;;;;;5059674;28;20645;-78
2023/12/02 00:06:48;;;;;;;11.60;6.90;;;-1.00;1.00;;;;;;5072530;28;20226;-80
2023/12/02 00:09:15;;;;;;;11.30;6.67;;;-1.00;1.00;;;;;;5063788;28;20229;-78
2023/12/02 00:11:42;;;;;;;11.30;5.93;;;-1.00;1.00;;;;;;5069874;28;20206;-79
2023/12/02 00:14:09;;;;;;;10.67;6.03;;;-1.00;1.00;;;;;;5074144;28;20210;-79
2023/12/02 00:16:35;;;;;;;10.90;6.60;;;-1.10;1.00;;;;;;5072013;28;20218;-78
2023/12/02 00:19:04;;;;;;;11.50;6.37;;;-1.10;1.00;;;;;;5071147;28;20225;-80
2023/12/02 00:21:30;;;;;;;9.33;5.83;;;-1.10;1.00;;;;;;5075061;28;20313;-81
2023/12/02 00:23:57;;;;;;;13.20;6.80;;;-1.10;1.00;;;;;;5064534;28;20241;-80
2023/12/02 00:26:24;;;;;;;12.37;6.87;;;-1.10;1.00;;;;;;5060200;28;20290;-80
2023/12/02 00:28:51;;;;;;;10.67;6.10;;;-1.10;1.00;;;;;;5064069;28;20218;-80
2023/12/02 00:31:18;;;;;;;11.43;6.40;;;-1.00;1.00;;;;;;5062999;28;20203;-79
2023/12/02 00:33:45;;;;;;;9.40;5.90;;;-1.00;1.00;;;;;;5064702;28;20214;-80
2023/12/02 00:36:13;;;;;;;11.53;6.93;;;-1.00;1.00;;;;;;5070136;28;20245;-80
2023/12/02 00:38:40;;;;;;;10.13;6.00;;;-1.00;1.00;;;;;;5065956;28;20226;-80
2023/12/02 00:41:10;;;;;;;10.70;6.00;;;-1.00;1.00;;;;;;5073748;28;20253;-80
2023/12/02 00:43:37;;;;;;;9.07;5.60;;;-1.10;1.00;;;;;;5073558;28;20194;-79
2023/12/02 00:46:04;;;;;;;11.33;5.97;;;-1.20;99.90;;;;;;5073347;28;20211;-80
2023/12/02 00:48:31;;;;;;;9.60;5.53;;;-1.10;1.00;;;;;;5072446;28;20646;-79
2023/12/02 00:50:57;;;;;;;9.73;5.30;;;-1.00;1.00;;;;;;5064653;28;20230;-79
2023/12/02 00:53:26;;;;;;;11.90;6.23;;;-1.00;1.00;;;;;;5071732;28;20664;-79
2023/12/02 00:55:52;;;;;;;9.80;6.57;;;-1.00;1.00;;;;;;5070060;28;20290;-79
2023/12/02 00:58:19;;;;;;;10.23;6.17;;;-1.00;1.00;;;;;;5068769;28;20254;-80
2023/12/02 01:00:46;;;;;;;12.73;7.27;;;-1.00;1.00;;;;;;5069188;28;20218;-81
2023/12/02 01:03:13;;;;;;;12.70;7.13;;;-0.90;1.00;;;;;;5067661;28;20207;-80
2023/12/02 01:05:40;;;;;;;13.67;7.50;;;-1.00;1.00;;;;;;5072489;28;20605;-79
2023/12/02 01:08:06;;;;;;;12.43;7.27;;;-1.00;1.00;;;;;;5067693;28;20293;-80
2023/12/02 01:10:34;;;;;;;15.50;7.57;;;-0.90;1.00;;;;;;5077167;28;20202;-80
2023/12/02 01:13:02;;;;;;;17.10;9.20;;;-1.00;1.00;;;;;;5070949;28;20202;-79
2023/12/02 01:15:29;;;;;;;14.93;8.40;;;-1.00;1.00;;;;;;5072218;28;20195;-80
2023/12/02 01:17:56;;;;;;;16.97;8.53;;;-1.00;1.00;;;;;;5070954;28;20226;-80
2023/12/02 01:20:23;;;;;;;14.27;7.77;;;-1.00;1.00;;;;;;5073766;28;20214;-80
2023/12/02 01:22:50;;;;;;;14.13;7.33;;;-1.10;1.00;;;;;;5073467;28;20206;-81
2023/12/02 01:25:16;;;;;;;11.40;6.23;;;-1.00;1.00;;;;;;5075470;28;20289;-79
2023/12/02 01:27:45;;;;;;;10.90;6.17;;;-1.10;1.00;;;;;;5061980;28;20211;-81
2023/12/02 01:30:12;;;;;;;10.53;6.20;;;-1.10;1.00;;;;;;5062198;28;20654;-80
2023/12/02 01:32:39;;;;;;;13.13;7.10;;;-1.00;1.00;;;;;;5069077;28;20218;-80
2023/12/02 01:35:06;;;;;;;13.00;7.63;;;-1.00;1.00;;;;;;5062753;28;20209;-80
2023/12/02 01:37:33;;;;;;;15.27;7.77;;;-1.00;1.00;;;;;;5063134;28;20209;-78
2023/12/02 01:40:00;;;;;;;13.73;7.77;;;-1.10;1.00;;;;;;5066463;28;20226;-79
2023/12/02 01:42:27;;;;;;;13.77;7.67;;;-1.30;1.00;;;;;;5064885;28;20293;-79
2023/12/02 01:44:55;;;;;;;13.10;6.80;;;-1.10;1.00;;;;;;5070049;28;20480;-79
2023/12/02 01:47:22;;;;;;;12.67;7.40;;;-1.10;1.00;;;;;;5064146;28;20203;-78
2023/12/02 01:49:50;;;;;;;13.00;7.40;;;-1.10;1.00;;;;;;5066825;28;20230;-80
2023/12/02 01:52:16;;;;;;;11.40;6.53;;;-1.10;1.00;;;;;;5069182;28;20708;-78
2023/12/02 01:54:44;;;;;;;12.27;6.97;;;-1.10;1.00;;;;;;5067572;28;20227;-79
2023/12/02 01:57:11;;;;;;;11.03;6.93;;;-1.10;1.00;;;;;;5066312;28;20198;-80
2023/12/02 01:59:41;;;;;;;12.27;7.23;;;-1.10;1.00;;;;;;5072421;28;20257;-80
2023/12/02 02:02:09;;;;;;;13.37;7.33;;;-1.20;1.00;;;;;;5068675;28;20442;-81
2023/12/02 02:04:36;;;;;;;12.30;7.70;;;-1.20;1.00;;;;;;5071513;28;20206;-80
2023/12/02 02:07:03;;;;;;;13.83;7.13;;;-1.20;1.00;;;;;;5071748;28;20616;-80
2023/12/02 02:09:34;;;;;;;14.00;7.40;;;-1.20;1.00;;;;;;5069629;28;20591;-80
2023/12/02 02:12:01;;;;;;;13.57;7.40;;;-1.20;1.00;;;;;;5066672;28;20202;-79
2023/12/02 02:14:28;;;;;;;14.23;8.43;;;-1.20;1.00;;;;;;5070423;28;20231;-79
2023/12/02 02:16:55;;;;;;;13.70;8.40;;;-1.20;1.00;;;;;;5073091;28;20664;-79
2023/12/02 02:19:23;;;;;;;15.57;8.00;;;-1.10;1.00;;;;;;5071635;28;20704;-79
2023/12/02 02:21:53;;;;;;;16.33;8.40;;;-1.20;1.00;;;;;;5067930;28;20218;-80
2023/12/02 02:24:20;;;;;;;15.70;8.77;;;-1.20;1.00;;;;;;5071500;28;20211;-78
2023/12/02 02:26:47;;;;;;;13.13;7.73;;;-1.30;1.00;;;;;;5073839;28;20202;-78
2023/12/02 02:29:14;;;;;;;14.20;7.90;;;-1.30;1.00;;;;;;5072306;28;20667;-80
2023/12/02 02:31:40;;;;;;;15.23;8.50;;;-1.40;1.00;;;;;;5074691;28;20605;-79
2023/12/02 02:34:07;;;;;;;15.47;8.50;;;-1.40;1.00;;;;;;5069159;28;20202;-79
2023/12/02 02:36:34;;;;;;;15.67;9.57;;;-1.30;1.00;;;;;;5062722;28;20221;-78
2023/12/02 02:39:02;;;;;;;18.93;10.37;;;-1.30;1.00;;;;;;5060125;28;20689;-79
2023/12/02 02:41:29;;;;;;;20.17;11.07;;;-1.40;1.00;;;;;;5070175;28;20222;-78
2023/12/02 02:43:56;;;;;;;19.43;9.73;;;-1.40;1.00;;;;;;5066633;28;20214;-81
2023/12/02 02:46:23;;;;;;;18.70;10.53;;;-1.30;1.00;;;;;;5067622;28;20218;-81
2023/12/02 02:48:50;;;;;;;20.80;11.03;;;-1.40;1.00;;;;;;5069996;28;20225;-80
2023/12/02 02:51:16;;;;;;;19.73;10.60;;;-1.40;1.00;;;;;;5069396;28;20217;-81
2023/12/02 02:53:43;;;;;;;19.20;10.80;;;-1.40;1.00;;;;;;5068002;28;20222;-79
2023/12/02 02:56:12;;;;;;;22.67;11.83;;;-1.30;1.00;;;;;;5064596;28;20210;-80
2023/12/02 02:58:39;;;;;;;23.70;12.93;;;-1.30;1.00;;;;;;5069508;28;20297;-81
2023/12/02 03:01:06;;;;;;;21.23;11.23;;;-1.30;99.90;;;;;;5066447;28;20224;-80
2023/12/02 03:03:33;;;;;;;19.30;9.90;;;-1.30;99.90;;;;;;5070453;28;20580;-81
2023/12/02 03:06:00;;;;;;;22.27;12.13;;;-1.40;1.00;;;;;;5069491;28;20210;-78
2023/12/02 03:08:27;;;;;;;25.30;13.17;;;-1.40;99.90;;;;;;5070212;28;20233;-81
2023/12/02 03:10:54;;;;;;;24.50;13.03;;;-1.40;99.90;;;;;;5067407;28;20195;-81
2023/12/02 03:13:22;;;;;;;19.27;9.77;;;-1.40;99.90;;;;;;5068859;28;20289;-79
2023/12/02 03:15:49;;;;;;;17.20;9.33;;;-1.50;99.90;;;;;;5072381;28;20269;-80
2023/12/02 03:18:15;;;;;;;17.10;8.93;;;-1.50;1.00;;;;;;5072605;28;20226;-79
2023/12/02 03:20:42;;;;;;;19.37;10.37;;;-1.40;1.00;;;;;;5073206;28;20252;-80
2023/12/02 03:23:09;;;;;;;18.13;9.63;;;-1.40;39.30;;;;;;5070501;28;20206;-78
2023/12/02 03:25:36;;;;;;;24.73;13.00;;;-1.40;1.00;;;;;;5071355;28;20206;-79
2023/12/02 03:28:03;;;;;;;23.97;12.63;;;-1.40;99.90;;;;;;5073297;28;20206;-80
2023/12/02 03:30:31;;;;;;;26.07;13.17;;;-1.40;99.90;;;;;;5071106;28;20209;-80
2023/12/02 03:32:57;;;;;;;25.53;13.67;;;-1.50;99.90;;;;;;5072917;28;20199;-81
2023/12/02 03:35:24;;;;;;;30.63;14.40;;;-1.50;99.90;;;;;;5066040;28;20239;-79
2023/12/02 03:37:51;;;;;;;26.63;14.63;;;-1.50;1.00;;;;;;5060294;28;20195;-79
2023/12/02 03:40:18;;;;;;;28.10;14.40;;;-1.50;1.00;;;;;;5072090;28;20744;-79
2023/12/02 03:42:45;;;;;;;30.87;15.43;;;-1.50;1.00;;;;;;5066494;28;20229;-80
2023/12/02 03:45:12;;;;;;;30.30;15.17;;;-1.40;1.00;;;;;;5071710;28;20209;-81
2023/12/02 03:47:40;;;;;;;32.30;17.07;;;-1.40;1.00;;;;;;5068183;28;20209;-80
2023/12/02 03:50:09;;;;;;;31.43;15.53;;;-1.40;1.00;;;;;;5065405;28;20738;-81
2023/12/02 03:52:35;;;;;;;29.10;15.77;;;-1.40;1.00;;;;;;5071922;28;20542;-80
2023/12/02 03:55:02;;;;;;;28.37;15.13;;;-1.40;1.00;;;;;;5070759;28;20653;-80
2023/12/02 03:57:29;;;;;;;30.00;15.13;;;-1.40;1.00;;;;;;5070907;28;20206;-81
2023/12/02 03:59:56;;;;;;;31.07;16.43;;;-1.40;1.00;;;;;;5074954;28;20229;-79
2023/12/02 04:02:23;;;;;;;28.87;15.60;;;-1.40;1.00;;;;;;5070322;28;20292;-80
2023/12/02 04:04:51;;;;;;;29.50;16.20;;;-1.40;1.00;;;;;;5075233;28;20296;-80
2023/12/02 04:07:18;;;;;;;25.53;13.83;;;-1.40;1.00;;;;;;5072125;28;20225;-79
2023/12/02 04:09:46;;;;;;;25.83;13.43;;;-1.50;1.00;;;;;;5076693;28;20218;-80
2023/12/02 04:12:13;;;;;;;24.37;13.00;;;-1.50;1.00;;;;;;5074582;28;20214;-79
2023/12/02 04:14:40;;;;;;;24.47;13.60;;;-1.50;1.00;;;;;;5074711;28;20202;-81
2023/12/02 04:17:08;;;;;;;27.47;13.37;;;-1.50;1.00;;;;;;5075690;28;20292;-79
2023/12/02 04:19:34;;;;;;;23.73;12.90;;;-1.50;1.00;;;;;;5072643;28;20230;-80
2023/12/02 04:22:03;;;;;;;25.80;13.97;;;-1.50;1.00;;;;;;5075447;28;20218;-81
2023/12/02 04:24:29;;;;;;;26.67;14.10;;;-1.40;1.00;;;;;;5066507;28;20199;-81
2023/12/02 04:26:56;;;;;;;22.10;13.17;;;-1.40;1.00;;;;;;5073237;28;20265;-81
2023/12/02 04:29:23;;;;;;;23.37;12.83;;;-1.50;1.00;;;;;;5073666;28;20237;-80
2023/12/02 04:31:50;;;;;;;25.87;13.57;;;-1.50;1.00;;;;;;5075640;28;20234;-80
2023/12/02 04:34:16;;;;;;;22.07;12.10;;;-1.60;1.00;;;;;;5074293;28;20224;-80
2023/12/02 04:36:44;;;;;;;23.87;12.90;;;-1.40;1.00;;;;;;5073592;28;20203;-79
2023/12/02 04:39:12;;;;;;;23.20;13.03;;;-1.50;1.00;;;;;;5074826;28;20233;-80
2023/12/02 04:41:39;;;;;;;24.30;14.03;;;-1.50;1.00;;;;;;5070752;28;20222;-80
2023/12/02 04:44:07;;;;;;;24.20;13.57;;;-1.50;1.00;;;;;;5071580;28;20603;-79
2023/12/02 04:46:33;;;;;;;25.17;13.30;;;-1.50;1.00;;;;;;5075176;28;20667;-79
2023/12/02 04:49:00;;;;;;;24.07;12.80;;;-1.50;1.00;;;;;;5071201;28;20227;-78
2023/12/02 04:51:27;;;;;;;22.20;12.67;;;-1.60;1.00;;;;;;5074698;28;20202;-81
2023/12/02 04:53:54;;;;;;;24.53;13.57;;;-1.50;1.00;;;;;;5068932;28;20224;-79
2023/12/02 04:56:22;;;;;;;24.20;13.20;;;-1.50;1.00;;;;;;5072357;28;20205;-80
2023/12/02 04:58:49;;;;;;;25.37;13.97;;;-1.60;1.00;;;;;;5075473;28;20222;-78
2023/12/02 05:01:16;;;;;;;22.87;11.87;;;-1.60;1.00;;;;;;5069522;28;20658;-81
2023/12/02 05:03:42;;;;;;;24.17;12.97;;;-1.60;1.00;;;;;;5070290;28;20281;-81
2023/12/02 05:06:14;;;;;;;25.30;13.80;;;-1.50;1.00;;;;;;5072350;28;20209;-81
2023/12/02 05:08:41;;;;;;;27.33;15.27;;;-1.50;1.00;;;;;;5072802;28;20225;-81
2023/12/02 05:11:09;;;;;;;26.30;14.17;;;-1.60;1.00;;;;;;5074981;28;20297;-82
2023/12/02 05:13:38;;;;;;;26.67;14.77;;;-1.50;1.00;;;;;;5075642;28;20203;-81
2023/12/02 05:16:05;;;;;;;29.10;15.93;;;-1.60;1.00;;;;;;5075633;28;20469;-78
2023/12/02 05:18:32;;;;;;;34.50;16.20;;;-1.60;1.00;;;;;;5072626;28;20250;-81
2023/12/02 05:20:59;;;;;;;31.80;16.30;;;-1.50;1.00;;;;;;5073467;28;20209;-80
2023/12/02 05:23:26;;;;;;;32.80;17.47;;;-1.60;1.00;;;;;;5072854;28;20628;-80
2023/12/02 05:25:52;;;;;;;31.67;17.20;;;-1.60;1.00;;;;;;5073487;28;20206;-81
2023/12/02 05:28:19;;;;;;;31.80;17.93;;;-1.50;17.30;;;;;;5069766;28;20329;-79
2023/12/02 05:30:47;;;;;;;32.93;17.70;;;-1.50;99.90;;;;;;5071162;28;20297;-80
2023/12/02 05:33:14;;;;;;;34.00;18.40;;;-1.50;99.90;;;;;;5072440;28;20206;-80
2023/12/02 05:35:42;;;;;;;31.00;17.00;;;-1.50;99.90;;;;;;5070477;28;20266;-79
2023/12/02 05:38:09;;;;;;;33.57;17.27;;;-1.60;99.90;;;;;;5076195;28;20722;-79
2023/12/02 05:40:35;;;;;;;32.80;16.57;;;-1.50;99.90;;;;;;5068302;28;20250;-80
2023/12/02 05:43:03;;;;;;;30.67;16.90;;;-1.50;99.90;;;;;;5072908;28;20230;-80
2023/12/02 05:45:30;;;;;;;32.33;16.93;;;-1.40;99.90;;;;;;5073578;28;20213;-79
2023/12/02 05:47:58;;;;;;;32.23;17.60;;;-1.50;99.90;;;;;;5069598;28;20838;-80
2023/12/02 05:50:25;;;;;;;31.60;16.87;;;-1.40;99.90;;;;;;5069298;28;20923;-81
2023/12/02 05:52:51;;;;;;;31.13;17.33;;;-1.40;99.90;;;;;;5070666;28;20206;-82
2023/12/02 05:55:18;;;;;;;33.93;18.23;;;-1.50;56.10;;;;;;5067078;28;20211;-79
2023/12/02 05:57:46;;;;;;;29.63;16.73;;;-1.40;99.90;;;;;;5076802;28;20241;-80
2023/12/02 06:00:16;;;;;;;29.47;16.10;;;-1.40;99.90;;;;;;5066739;28;20278;-79
2023/12/02 06:02:43;;;;;;;30.23;17.17;;;-1.50;19.00;;;;;;5066391;28;20253;-80
2023/12/02 06:05:12;;;;;;;29.10;15.93;;;-1.50;99.90;;;;;;5069550;28;20214;-81
2023/12/02 06:07:39;;;;;;;32.83;17.93;;;-1.50;99.90;;;;;;5068763;28;20210;-80
2023/12/02 06:10:08;;;;;;;32.50;17.63;;;-1.50;86.00;;;;;;5071897;28;20252;-81
2023/12/02 06:12:35;;;;;;;30.37;17.13;;;-1.40;99.90;;;;;;5069080;28;20207;-81
2023/12/02 06:15:01;;;;;;;31.40;17.40;;;-1.40;99.90;;;;;;5070891;28;20270;-81
2023/12/02 06:17:29;;;;;;;30.97;17.33;;;-1.40;89.50;;;;;;5073427;28;20214;-80
2023/12/02 06:19:56;;;;;;;30.37;17.83;;;-1.50;99.90;;;;;;5075891;28;20612;-79
2023/12/02 06:22:25;;;;;;;31.00;17.30;;;-1.40;99.90;;;;;;5069249;28;20211;-79
2023/12/02 06:24:52;;;;;;;31.63;17.77;;;-1.40;99.90;;;;;;5069609;28;20285;-80
2023/12/02 06:27:19;;;;;;;33.80;19.30;;;-1.40;99.90;;;;;;5071306;28;20210;-78
2023/12/02 06:29:46;;;;;;;31.60;18.10;;;-1.40;1.00;;;;;;5068798;28;20218;-80
2023/12/02 06:32:13;;;;;;;32.57;18.23;;;-1.40;1.00;;;;;;5072645;28;20198;-80
2023/12/02 06:34:40;;;;;;;34.67;19.00;;;-1.40;1.00;;;;;;5069474;28;20198;-80
2023/12/02 06:37:07;;;;;;;32.47;17.60;;;-1.30;1.00;;;;;;5069181;28;20293;-81
2023/12/02 06:39:35;;;;;;;30.60;17.40;;;-1.30;1.00;;;;;;5072805;28;20315;-79
2023/12/02 06:42:02;;;;;;;32.60;18.07;;;-1.40;99.90;;;;;;5068274;28;20242;-80
2023/12/02 06:44:29;;;;;;;33.27;17.40;;;-1.30;1.00;;;;;;5068307;28;20207;-80
2023/12/02 06:46:56;;;;;;;29.80;17.43;;;-1.40;1.00;;;;;;5071204;28;20758;-81
2023/12/02 06:49:22;;;;;;;30.00;17.80;;;-1.20;1.00;;;;;;5072240;28;20661;-79
2023/12/02 06:51:49;;;;;;;31.10;17.10;;;-1.40;1.00;;;;;;5072178;28;20200;-80
2023/12/02 06:54:16;;;;;;;32.90;19.23;;;-1.40;1.00;;;;;;5073983;28;20202;-80
2023/12/02 06:56:45;;;;;;;31.43;17.67;;;-1.40;1.00;;;;;;5071363;28;20265;-80
2023/12/02 06:59:13;;;;;;;31.83;18.67;;;-1.40;1.00;;;;;;5070145;28;20308;-79
2023/12/02 07:01:40;;;;;;;30.80;17.17;;;-1.40;25.00;;;;;;5073647;28;20213;-80
2023/12/02 07:04:06;;;;;;;31.60;18.20;;;-1.30;97.20;;;;;;5068053;28;20285;-79
2023/12/02 07:06:34;;;;;;;28.90;16.47;;;-1.40;1.00;;;;;;5065703;28;20226;-80
2023/12/02 07:09:00;;;;;;;29.30;16.30;;;-1.40;14.90;;;;;;5074009;28;20237;-79
2023/12/02 07:11:27;;;;;;;31.97;17.20;;;-1.30;1.00;;;;;;5068691;28;20206;-78
2023/12/02 07:13:58;;;;;;;30.93;16.97;;;-1.30;93.00;;;;;;5073690;28;20262;-78
2023/12/02 07:16:25;;;;;;;30.70;17.63;;;-1.30;1.00;;;;;;5071881;28;20210;-79
2023/12/02 07:18:52;;;;;;;32.63;16.77;;;-1.40;99.90;;;;;;5073345;28;20245;-78
2023/12/02 07:21:18;;;;;;;31.73;16.87;;;-1.40;99.90;;;;;;5073329;28;20204;-80
2023/12/02 07:23:46;;;;;;;28.27;15.00;;;-1.40;99.90;;;;;;5078738;28;20225;-79
2023/12/02 07:26:13;;;;;;;31.23;16.73;;;-1.40;99.90;;;;;;5074216;28;20202;-81
2023/12/02 07:28:40;;;;;;;28.30;16.03;;;-1.40;99.90;;;;;;5070439;28;20226;-79
2023/12/02 07:31:13;;;;;;;28.57;15.30;;;-1.30;99.90;;;;;;5074921;28;20203;-78
2023/12/02 07:33:40;;;;;;;27.50;15.57;;;-1.30;99.90;;;;;;5075978;28;20720;-80
2023/12/02 07:36:07;;;;;;;30.37;15.53;;;-1.30;99.90;;;;;;5068722;28;20205;-79
2023/12/02 07:38:35;;;;;;;28.93;15.80;;;-1.30;99.90;;;;;;5072516;28;20236;-78
2023/12/02 07:41:02;;;;;;;29.77;15.83;;;-1.20;99.90;;;;;;5076767;28;20267;-79
2023/12/02 07:43:29;;;;;;;29.03;15.13;;;-1.30;99.90;;;;;;5071789;28;20233;-79
2023/12/02 07:45:55;;;;;;;33.10;17.13;;;-1.30;72.30;;;;;;5070964;28;20203;-78
2023/12/02 07:48:24;;;;;;;29.73;16.30;;;-1.20;99.90;;;;;;5073767;28;20222;-79
2023/12/02 07:50:50;;;;;;;29.20;15.10;;;-1.20;93.40;;;;;;5068818;28;20602;-79
2023/12/02 07:53:17;;;;;;;29.27;16.23;;;-1.20;99.90;;;;;;5076395;28;20199;-77
2023/12/02 07:55:44;;;;;;;26.53;14.40;;;-1.20;99.90;;;;;;5078678;28;20654;-78
2023/12/02 07:58:11;;;;;;;28.37;15.60;;;-1.20;99.90;;;;;;5074866;28;20213;-78
2023/12/02 08:00:38;;;;;;;28.83;15.37;;;-1.10;99.90;;;;;;5071647;28;20921;-78
2023/12/02 08:03:05;;;;;;;31.30;16.03;;;-1.20;1.00;;;;;;5072282;28;20218;-78
2023/12/02 08:05:33;;;;;;;28.67;15.47;;;-1.20;90.20;;;;;;5070142;28;20198;-79
2023/12/02 08:08:00;;;;;;;28.77;15.00;;;-1.10;99.90;;;;;;5069790;28;20202;-78
2023/12/02 08:10:27;;;;;;;27.67;13.97;;;-1.10;99.90;;;;;;5064840;28;20205;-78
2023/12/02 08:12:53;;;;;;;26.47;14.53;;;-1.10;99.90;;;;;;5075420;28;20262;-79
2023/12/02 08:15:20;;;;;;;28.13;15.00;;;-1.10;99.90;;;;;;5069060;28;20201;-79
2023/12/02 08:17:47;;;;;;;26.03;13.37;;;-1.10;99.90;;;;;;5067535;28;20283;-80
2023/12/02 08:20:14;;;;;;;24.43;13.53;;;-1.00;99.90;;;;;;5077510;28;20230;-78
2023/12/02 08:22:43;;;;;;;27.50;14.60;;;-1.00;1.00;;;;;;5073258;28;20215;-78
2023/12/02 08:25:09;;;;;;;25.53;14.03;;;-1.20;1.00;;;;;;5064186;28;20634;-77
2023/12/02 08:27:36;;;;;;;25.77;13.53;;;-1.10;95.10;;;;;;5069054;28;20217;-78
2023/12/02 08:30:05;;;;;;;27.17;14.43;;;-1.10;1.00;;;;;;5071651;28;20246;-79
2023/12/02 08:32:32;;;;;;;27.50;15.33;;;-1.10;1.00;;;;;;5067445;28;20194;-79
2023/12/02 08:34:58;;;;;;;25.90;14.10;;;-1.10;80.70;;;;;;5067380;28;20195;-77
2023/12/02 08:37:26;;;;;;;27.63;13.60;;;-1.10;1.00;;;;;;5070803;28;20289;-80
2023/12/02 08:39:54;;;;;;;27.10;14.57;;;-1.00;1.00;;;;;;5073704;28;20226;-78
2023/12/02 08:42:21;;;;;;;29.73;14.97;;;-0.90;1.00;;;;;;5074230;28;20205;-78
2023/12/02 08:44:47;;;;;;;28.33;14.13;;;-1.00;2.40;;;;;;5071702;28;20199;-78
2023/12/02 08:47:14;;;;;;;28.33;14.33;;;-1.00;99.90;;;;;;5077849;28;20678;-79
2023/12/02 08:49:41;;;;;;;27.47;14.00;;;-1.00;99.90;;;;;;5071440;28;20236;-78
2023/12/02 08:52:08;;;;;;;27.10;14.27;;;-1.00;1.00;;;;;;5075127;28;20690;-79
2023/12/02 08:54:34;;;;;;;28.80;15.00;;;-0.90;1.00;;;;;;5079104;28;20198;-78
2023/12/02 08:57:02;;;;;;;29.77;15.50;;;-1.00;1.00;;;;;;5074181;28;20220;-78
2023/12/02 08:59:29;;;;;;;29.77;15.73;;;-0.90;1.00;;;;;;5078140;28;20264;-79
2023/12/02 09:01:56;;;;;;;31.80;17.37;;;-0.90;1.00;;;;;;5075856;28;20208;-79
2023/12/02 09:04:23;;;;;;;30.37;16.47;;;-1.00;1.00;;;;;;5072314;28;20607;-80
2023/12/02 09:06:50;;;;;;;28.83;15.87;;;-0.90;1.00;;;;;;5075647;28;20200;-78
2023/12/02 09:09:17;;;;;;;31.57;17.50;;;-0.90;1.00;;;;;;5069732;28;20592;-81
2023/12/02 09:11:43;;;;;;;33.47;17.23;;;-0.90;1.00;;;;;;5068968;28;20202;-78
2023/12/02 09:14:12;;;;;;;29.43;15.27;;;-0.90;1.00;;;;;;5073510;28;20720;-77
2023/12/02 09:16:46;;;;;;;31.27;16.57;;;-0.90;1.00;;;;;;5069574;28;20206;-79
2023/12/02 09:19:51;;;;;;;30.37;18.33;;;-0.90;1.00;;;;;;5070517;28;20237;-77
2023/12/02 09:22:45;;;;;;;32.23;17.20;;;-0.90;99.90;;;;;;5070924;28;20214;-79
2023/12/02 09:25:24;;;;;;;30.53;16.93;;;-0.90;99.90;;;;;;5072141;28;20765;-79
2023/12/02 09:28:13;;;;;;;33.17;17.90;;;-0.90;99.90;;;;;;5062218;28;20202;-80
2023/12/02 09:30:47;;;;;;;31.87;17.67;;;-0.90;99.90;;;;;;5065957;28;20203;-79
2023/12/02 09:33:13;;;;;;;29.93;17.43;;;-0.90;99.90;;;;;;5068176;28;20233;-79
2023/12/02 09:35:40;;;;;;;30.90;18.67;;;-0.90;1.00;;;;;;5068135;28;20205;-80
2023/12/02 09:38:07;;;;;;;32.53;18.63;;;-0.80;1.00;;;;;;5067577;28;20202;-79
2023/12/02 09:40:44;;;;;;;33.30;17.57;;;-0.80;99.90;;;;;;5065092;28;20209;-80
2023/12/02 09:43:25;;;;;;;34.20;19.30;;;-0.80;99.90;;;;;;5066540;28;20228;-78
2023/12/02 09:46:05;;;;;;;33.60;18.67;;;-0.80;99.90;;;;;;5066814;28;20224;-79
2023/12/02 09:48:35;;;;;;;36.23;19.80;;;-0.90;99.90;;;;;;5069887;28;20718;-80
2023/12/02 09:51:13;;;;;;;32.93;18.83;;;-0.80;99.90;;;;;;5066030;28;20211;-79
2023/12/02 09:53:50;;;;;;;35.67;20.03;;;-0.80;99.90;;;;;;5069868;28;20198;-79
2023/12/02 09:56:21;;;;;;;34.80;18.93;;;-0.70;99.90;;;;;;5070328;28;20207;-81
2023/12/02 09:58:50;;;;;;;36.27;18.97;;;-0.70;99.90;;;;;;5067508;28;20218;-79
2023/12/02 10:01:30;;;;;;;36.43;18.43;;;-0.80;99.90;;;;;;5067416;28;20721;-80
2023/12/02 10:04:04;;;;;;;35.57;18.97;;;-0.80;42.70;;;;;;5070759;28;20317;-80
2023/12/02 10:06:47;;;;;;;37.67;20.20;;;-0.80;1.00;;;;;;5073902;28;20224;-79
2023/12/02 10:09:32;;;;;;;39.37;20.47;;;-0.70;18.40;;;;;;5064586;28;20663;-79
2023/12/02 10:12:07;;;;;;;41.83;21.57;;;-0.70;99.90;;;;;;5065200;28;20194;-81
2023/12/02 10:14:37;;;;;;;38.43;19.97;;;-0.60;29.50;;;;;;5074848;28;20221;-80
2023/12/02 10:17:09;;;;;;;36.73;19.20;;;-0.50;1.00;;;;;;5074388;28;20217;-79
2023/12/02 10:19:41;;;;;;;37.77;19.47;;;-0.50;1.00;;;;;;5074162;28;20473;-80
2023/12/02 10:22:11;;;;;;;38.90;20.87;;;-0.50;99.90;;;;;;5075897;28;20231;-80
2023/12/02 10:24:49;;;;;;;36.93;20.63;;;-0.50;99.90;;;;;;5066961;28;20226;-80
2023/12/02 10:27:18;;;;;;;36.13;19.50;;;-0.60;99.90;;;;;;5064902;28;20577;-78
2023/12/02 10:29:53;;;;;;;36.60;19.17;;;-0.60;99.90;;;;;;5065715;28;20238;-79
2023/12/02 10:32:33;;;;;;;36.57;19.23;;;-0.60;99.90;;;;;;5069970;28;20202;-79
2023/12/02 10:35:18;;;;;;;39.57;19.80;;;-0.60;99.90;;;;;;5068296;28;20644;-80
2023/12/02 10:37:45;;;;;;;36.17;19.87;;;-0.60;99.90;;;;;;5073745;28;20210;-79
2023/12/02 10:40:15;;;;;;;43.07;22.90;;;-0.50;99.90;;;;;;5071549;28;20233;-80
2023/12/02 10:42:52;;;;;;;56.37;28.77;;;-0.50;99.90;;;;;;5066141;28;20198;-80
2023/12/02 10:45:22;;;;;;;55.53;28.27;;;-0.50;99.90;;;;;;5076520;28;20264;-80
2023/12/02 10:47:52;;;;;;;47.07;26.00;;;-0.50;99.90;;;;;;5067876;28;20289;-80
2023/12/02 10:50:21;;;;;;;39.40;21.53;;;-0.50;99.90;;;;;;5067122;28;20277;-78
2023/12/02 10:52:58;;;;;;;37.20;20.87;;;-0.60;99.90;;;;;;5068029;28;20202;-78
2023/12/02 10:55:26;;;;;;;35.77;18.20;;;-0.50;99.90;;;;;;5076010;28;20209;-78
2023/12/02 10:57:55;;;;;;;36.97;19.23;;;-0.50;99.90;;;;;;5069919;28;20199;-78
2023/12/02 11:00:24;;;;;;;37.17;19.93;;;-0.60;99.90;;;;;;5074428;28;20199;-79
2023/12/02 11:03:00;;;;;;;35.87;20.20;;;-0.50;99.90;;;;;;5072690;28;20289;-77
2023/12/02 11:05:31;;;;;;;41.73;23.53;;;-0.40;99.90;;;;;;5069106;28;20206;-80
2023/12/02 11:08:07;;;;;;;36.93;21.33;;;-0.40;99.90;;;;;;5073147;28;20587;-78
2023/12/02 11:10:36;;;;;;;39.83;24.33;;;-0.40;99.90;;;;;;5075037;28;20202;-80
2023/12/02 11:13:05;;;;;;;37.23;20.70;;;-0.30;99.90;;;;;;5072601;28;20256;-78
2023/12/02 11:15:39;;;;;;;35.27;19.13;;;-0.40;99.90;;;;;;5071805;28;20212;-80
2023/12/02 11:18:13;;;;;;;35.80;18.77;;;-0.40;29.00;;;;;;5065380;28;20234;-77
2023/12/02 11:20:51;;;;;;;38.27;20.10;;;-0.30;99.90;;;;;;5074439;28;20194;-80
2023/12/02 11:23:31;;;;;;;38.37;20.93;;;-0.20;1.00;;;;;;5074096;28;20218;-78
2023/12/02 11:26:12;;;;;;;39.33;21.07;;;-0.20;1.00;;;;;;5064398;28;20199;-80
2023/12/02 11:28:49;;;;;;;38.17;20.77;;;-0.20;1.00;;;;;;5065604;28;20249;-79
2023/12/02 11:31:30;;;;;;;36.70;20.50;;;-0.20;1.00;;;;;;5063376;28;20207;-83
2023/12/02 11:34:20;;;;;;;36.07;19.33;;;-0.20;1.00;;;;;;5066190;28;20210;-79
2023/12/02 11:36:54;;;;;;;35.90;19.70;;;-0.30;1.00;;;;;;5061659;28;20203;-79
2023/12/02 11:39:32;;;;;;;33.83;18.67;;;-0.20;1.00;;;;;;5064004;28;20280;-79
2023/12/02 11:42:11;;;;;;;36.50;18.70;;;-0.20;1.00;;;;;;5071556;28;20207;-79
2023/12/02 11:44:46;;;;;;;36.07;19.30;;;-0.20;1.00;;;;;;5066348;28;20245;-81
2023/12/02 11:47:28;;;;;;;35.10;18.90;;;-0.10;1.00;;;;;;5065487;28;20652;-81
2023/12/02 11:50:08;;;;;;;33.93;18.07;;;-0.10;1.00;;;;;;5068297;28;20226;-79
2023/12/02 11:52:53;;;;;;;37.17;17.00;;;-0.20;1.00;;;;;;5072585;28;20221;-80
2023/12/02 11:55:29;;;;;;;36.63;19.27;;;-0.20;1.00;;;;;;5069398;28;20205;-78
2023/12/02 11:58:08;;;;;;;33.07;17.43;;;-0.20;1.00;;;;;;5065977;28;20854;-78
2023/12/02 12:00:54;;;;;;;35.23;19.10;;;-0.20;1.00;;;;;;5073898;28;20217;-81
2023/12/02 12:03:42;;;;;;;37.07;18.83;;;-0.10;1.00;;;;;;5072656;28;20207;-80
2023/12/02 12:06:20;;;;;;;37.10;19.57;;;-0.20;1.00;;;;;;5071473;28;20215;-79
2023/12/02 12:09:01;;;;;;;32.83;18.10;;;-0.20;99.90;;;;;;5069671;28;20210;-81
2023/12/02 12:11:31;;;;;;;32.80;16.97;;;-0.20;99.90;;;;;;5073948;28;20225;-81
2023/12/02 12:13:59;;;;;;;31.83;16.50;;;-0.20;99.90;;;;;;5070307;28;20203;-80
2023/12/02 12:16:26;;;;;;;35.03;17.73;;;-0.20;99.90;;;;;;5075087;28;20294;-80
2023/12/02 12:18:52;;;;;;;36.23;18.67;;;-0.20;1.00;;;;;;5075800;28;20237;-82
2023/12/02 12:21:21;;;;;;;37.53;19.33;;;-0.20;99.90;;;;;;5076472;28;20260;-80
2023/12/02 12:23:48;;;;;;;34.17;16.50;;;-0.20;99.90;;;;;;5074971;28;20234;-81
2023/12/02 12:26:15;;;;;;;34.60;18.17;;;-0.10;1.00;;;;;;5064497;28;20213;-79
2023/12/02 12:28:42;;;;;;;35.47;19.07;;;-0.20;99.90;;;;;;5077085;28;20219;-80
2023/12/02 12:31:10;;;;;;;36.73;19.07;;;-0.10;1.00;;;;;;5073000;28;20848;-81
2023/12/02 12:33:38;;;;;;;34.57;19.23;;;-0.10;1.00;;;;;;5069719;28;20364;-80
2023/12/02 12:36:06;;;;;;;33.07;17.43;;;-0.10;1.00;;;;;;5062333;28;20597;-80
2023/12/02 12:38:34;;;;;;;34.93;18.60;;;-0.10;1.00;;;;;;5069883;28;20747;-81
2023/12/02 12:41:01;;;;;;;37.03;19.80;;;-0.10;1.00;;;;;;5068048;28;20199;-80
2023/12/02 12:43:28;;;;;;;37.20;20.60;;;0.00;1.00;;;;;;5068457;28;20217;-85
2023/12/02 12:45:55;;;;;;;34.73;19.33;;;0.00;1.00;;;;;;5070660;28;20206;-79